Time;durP1;ratioP1;P1;durP2;ratioP2;P2;SDS_P1;SDS_P2;PMS_P1;PMS_P2;Temp;Humidity;BMP_temperature;BMP_pressure;BME280_temperature;BME280_humidity;BME280_pressure;Samples;Min_cycle;Max_cycle;Signal;HPM_P1;HPM_P2
2023/10/16 00:00:47;;;;;;;;;;;;;;;6.68;100.00;102427.03;5090996;28;20028;-36
2023/10/16 00:03:14;;;;;;;6.53;2.53;;;;;;;6.59;100.00;102425.38;5090402;28;19915;-36
2023/10/16 00:05:51;;;;;;;5.95;2.58;;;;;;;6.45;100.00;102395.44;5089880;28;20035;-36
2023/10/16 00:08:18;;;;;;;5.53;2.55;;;;;;;6.56;100.00;102409.56;5085285;28;20037;-36
2023/10/16 00:11:03;;;;;;;6.53;2.28;;;;;;;6.60;100.00;102405.53;5076892;28;20032;-36
2023/10/16 00:13:29;;;;;;;3.20;2.17;;;;;;;6.64;100.00;102418.47;5076202;28;20049;-36
2023/10/16 00:15:57;;;;;;;4.05;2.45;;;;;;;6.64;100.00;102420.34;5076723;28;20016;-36
2023/10/16 00:18:23;;;;;;;5.35;2.25;;;;;;;6.68;100.00;102411.72;5076002;28;20024;-36
2023/10/16 00:20:52;;;;;;;4.68;2.15;;;;;;;6.67;100.00;102417.28;5076894;28;20450;-36
2023/10/16 00:23:24;;;;;;;4.97;2.60;;;;;;;6.59;100.00;102403.88;5076114;28;20052;-36
2023/10/16 00:25:50;;;;;;;6.32;2.63;;;;;;;6.65;100.00;102406.72;5076041;28;20027;-36
2023/10/16 00:28:21;;;;;;;4.65;2.13;;;;;;;6.75;100.00;102417.31;5075986;28;20032;-36
2023/10/16 00:30:47;;;;;;;5.93;2.55;;;;;;;6.65;100.00;102409.41;5075970;28;20028;-36
2023/10/16 00:33:13;;;;;;;4.00;2.38;;;;;;;6.72;100.00;102415.78;5075935;28;20024;-36
2023/10/16 00:35:39;;;;;;;5.07;2.25;;;;;;;6.79;100.00;102420.50;5076652;28;20062;-36
2023/10/16 00:38:12;;;;;;;;;;;;;;;6.86;100.00;102419.66;5076125;28;20024;-36
2023/10/16 00:40:38;;;;;;;4.47;1.95;;;;;;;6.78;100.00;102421.50;5075761;28;19916;-36
2023/10/16 00:43:19;;;;;;;4.03;2.55;;;;;;;6.79;100.00;102425.88;5075657;28;20059;-36
2023/10/16 00:45:50;;;;;;;4.72;2.20;;;;;;;6.78;100.00;102419.63;5075649;28;20460;-36
2023/10/16 00:48:16;;;;;;;3.85;2.03;;;;;;;6.71;100.00;102424.84;5075569;28;20070;-36
2023/10/16 00:50:49;;;;;;;4.18;2.40;;;;;;;6.70;100.00;102411.59;5075890;28;20425;-36
2023/10/16 00:53:22;;;;;;;6.15;2.50;;;;;;;6.76;100.00;102423.53;5075181;28;20029;-36
2023/10/16 00:55:51;;;;;;;5.60;2.28;;;;;;;6.81;100.00;102413.94;5075185;28;20091;-36
2023/10/16 00:58:17;;;;;;;4.78;2.60;;;;;;;6.77;100.00;102411.75;5076140;28;20040;-36
2023/10/16 01:00:45;;;;;;;4.97;2.03;;;;;;;6.86;100.00;102411.59;5075419;28;20384;-36
2023/10/16 01:03:12;;;;;;;5.40;2.30;;;;;;;6.82;100.00;102412.94;5075248;28;20044;-36
2023/10/16 01:05:42;;;;;;;3.55;2.20;;;;;;;6.89;100.00;102411.25;5075244;28;20519;-36
2023/10/16 01:08:11;;;;;;;4.97;2.40;;;;;;;6.81;100.00;102405.03;5075234;28;20062;-36
2023/10/16 01:10:41;;;;;;;6.65;2.55;;;;;;;6.82;100.00;102407.53;5075441;28;20436;-36
2023/10/16 01:13:13;;;;;;;4.60;2.30;;;;;;;6.85;100.00;102403.69;5075076;28;20399;-36
2023/10/16 01:15:46;;;;;;;2.35;1.77;;;;;;;6.84;100.00;102408.25;5075126;28;20134;-36
2023/10/16 01:18:14;;;;;;;5.00;2.50;;;;;;;6.61;100.00;102397.31;5075435;28;20031;-36
2023/10/16 01:20:39;;;;;;;4.03;2.20;;;;;;;6.66;100.00;102402.19;5074280;28;20401;-36
2023/10/16 01:23:04;;;;;;;6.77;2.63;;;;;;;6.66;100.00;102391.41;5074642;28;20099;-36
2023/10/16 01:25:30;;;;;;;4.40;2.13;;;;;;;6.66;100.00;102397.63;5074812;28;20032;-36
2023/10/16 01:27:55;;;;;;;6.07;2.50;;;;;;;6.64;100.00;102390.75;5074715;28;20107;-36
2023/10/16 01:30:21;;;;;;;4.03;2.33;;;;;;;6.60;100.00;102397.47;5075547;28;20020;-36
2023/10/16 01:32:46;;;;;;;4.47;2.42;;;;;;;6.60;100.00;102395.63;5075433;28;20052;-36
2023/10/16 01:35:13;;;;;;;4.85;2.53;;;;;;;6.59;100.00;102398.50;5074687;28;20028;-36
2023/10/16 01:37:39;;;;;;;5.57;2.53;;;;;;;6.51;100.00;102382.34;5074398;28;20024;-36
2023/10/16 01:40:21;;;;;;;5.57;2.83;;;;;;;6.54;100.00;102384.69;5074831;28;20035;-36
2023/10/16 01:42:48;;;;;;;5.38;3.17;;;;;;;6.56;100.00;102394.28;5074448;28;20027;-36
2023/10/16 01:45:14;;;;;;;6.20;2.72;;;;;;;6.56;100.00;102394.28;5074490;28;20056;-36
2023/10/16 01:47:39;;;;;;;4.60;3.00;;;;;;;6.53;100.00;102391.06;5074345;28;20071;-36
2023/10/16 01:50:05;;;;;;;6.35;3.05;;;;;;;6.59;100.00;102376.97;5074294;28;20027;-36
2023/10/16 01:52:33;;;;;;;4.82;2.60;;;;;;;6.57;100.00;102393.25;5074223;28;20021;-36
2023/10/16 01:54:59;;;;;;;5.00;2.80;;;;;;;6.55;100.00;102386.38;5074229;28;20027;-36
2023/10/16 01:57:26;;;;;;;5.60;3.15;;;;;;;6.55;100.00;102387.22;5075057;28;20048;-36
2023/10/16 01:59:52;;;;;;;6.18;3.13;;;;;;;6.53;100.00;102385.69;5074417;28;20393;-36
2023/10/16 02:02:18;;;;;;;7.15;3.33;;;;;;;6.38;100.00;102366.69;5074202;28;20028;-36
2023/10/16 02:04:43;;;;;;;6.20;2.92;;;;;;;6.43;100.00;102375.09;5074048;28;20039;-36
2023/10/16 02:07:09;;;;;;;5.07;3.15;;;;;;;6.38;100.00;102366.69;5074027;28;20058;-36
2023/10/16 02:09:38;;;;;;;7.20;3.40;;;;;;;6.50;100.00;102373.44;5074087;28;20025;-36
2023/10/16 02:12:10;;;;;;;5.93;3.17;;;;;;;6.47;100.00;102370.25;5074241;28;20439;-36
2023/10/16 02:14:40;;;;;;;3.72;2.53;;;;;;;6.44;100.00;102371.41;5073952;28;20359;-36
2023/10/16 02:17:14;;;;;;;4.00;2.85;;;;;;;6.47;100.00;102372.94;5074102;28;20142;-36
2023/10/16 02:19:43;;;;;;;6.13;3.00;;;;;;;6.49;100.00;102369.09;5073898;28;20024;-36
2023/10/16 02:22:11;;;;;;;5.45;3.00;;;;;;;6.43;100.00;102358.97;5074673;28;20479;-36
2023/10/16 02:24:37;;;;;;;9.90;3.35;;;;;;;6.39;100.00;102368.38;5073710;28;20016;-36
2023/10/16 02:27:03;;;;;;;4.57;2.80;;;;;;;6.45;100.00;102365.88;5074610;28;20189;-36
2023/10/16 02:29:31;;;;;;;;;;;;;;;6.53;100.00;102366.88;5074375;28;20020;-36
2023/10/16 02:31:58;;;;;;;5.00;2.70;;;;;;;6.48;100.00;102369.22;5073993;28;19908;-36
2023/10/16 02:34:23;;;;;;;5.43;3.03;;;;;;;6.40;100.00;102351.28;5073317;28;20099;-36
2023/10/16 02:36:54;;;;;;;6.90;3.03;;;;;;;6.56;100.00;102364.69;5073787;28;20116;-36
2023/10/16 02:39:35;;;;;;;5.38;3.08;;;;;;;6.57;100.00;102363.69;5073515;28;20029;-36
2023/10/16 02:42:08;;;;;;;7.03;2.80;;;;;;;6.61;100.00;102356.13;5073867;28;20020;-36
2023/10/16 02:44:42;;;;;;;6.07;3.20;;;;;;;6.57;100.00;102352.94;5073204;28;20059;-36
2023/10/16 02:47:09;;;;;;;5.25;3.28;;;;;;;6.58;100.00;102353.78;5073978;28;20024;-36
2023/10/16 02:49:35;;;;;;;5.97;3.38;;;;;;;6.50;100.00;102356.47;5073470;28;20107;-36
2023/10/16 02:52:00;;;;;;;8.27;3.33;;;;;;;6.48;100.00;102356.63;5073795;28;20069;-36
2023/10/16 02:54:26;;;;;;;11.00;4.43;;;;;;;6.51;100.00;102356.31;5073200;28;20460;-36
2023/10/16 02:56:59;;;;;;;7.13;3.47;;;;;;;6.59;100.00;102360.84;5073562;28;20287;-36
2023/10/16 02:59:25;;;;;;;6.97;3.30;;;;;;;6.51;100.00;102359.00;5073347;28;20017;-36
2023/10/16 03:01:53;;;;;;;5.95;3.20;;;;;;;6.58;100.00;102356.47;5074174;28;20088;-36
2023/10/16 03:04:18;;;;;;;7.05;3.95;;;;;;;6.48;100.00;102358.47;5073343;28;20341;-36
2023/10/16 03:06:43;;;;;;;5.97;3.38;;;;;;;6.53;100.00;102356.13;5073669;28;20035;-36
2023/10/16 03:09:28;;;;;;;4.60;2.90;;;;;;;6.50;100.00;102359.16;5073319;28;20468;-36
2023/10/16 03:12:10;;;;;;;8.77;3.53;;;;;;;6.47;100.00;102363.00;5073327;28;20162;-36
2023/10/16 03:14:45;;;;;;;6.00;3.15;;;;;;;6.42;100.00;102366.19;5073277;28;20032;-36
2023/10/16 03:17:25;;;;;;;6.53;3.72;;;;;;;6.41;100.00;102363.69;5073991;28;20024;-36
2023/10/16 03:19:54;;;;;;;5.22;3.50;;;;;;;6.36;100.00;102366.88;5073232;28;20028;-36
2023/10/16 03:22:21;;;;;;;9.10;3.25;;;;;;;6.33;100.00;102364.50;5073188;28;20032;-36
2023/10/16 03:24:47;;;;;;;;;;;;;;;6.47;100.00;102356.81;5073581;28;20155;-36
2023/10/16 03:27:26;;;;;;;6.03;3.33;;;;;;;6.33;100.00;102361.81;5072932;28;19904;-36
2023/10/16 03:29:52;;;;;;;4.63;2.85;;;;;;;6.41;100.00;102353.78;5072870;28;20051;-36
2023/10/16 03:32:17;;;;;;;4.78;2.97;;;;;;;6.23;100.00;102339.66;5073366;28;20020;-36
2023/10/16 03:34:44;;;;;;;5.23;3.20;;;;;;;6.30;100.00;102351.44;5073036;28;20364;-36
2023/10/16 03:37:10;;;;;;;6.95;3.78;;;;;;;6.20;100.00;102350.75;5073257;28;20270;-36
2023/10/16 03:39:36;;;;;;;5.60;3.07;;;;;;;6.18;100.00;102342.00;5073285;28;20043;-36
2023/10/16 03:42:01;;;;;;;3.88;2.97;;;;;;;6.19;100.00;102340.97;5073520;28;20078;-36
2023/10/16 03:44:27;;;;;;;5.53;3.17;;;;;;;6.18;100.00;102345.50;5074921;28;20047;-36
2023/10/16 03:46:55;;;;;;;6.70;3.10;;;;;;;6.09;100.00;102342.97;5077072;28;20750;-36
2023/10/16 03:49:21;;;;;;;5.47;3.67;;;;;;;6.11;100.00;102346.34;5076628;28;20259;-36
2023/10/16 03:51:48;;;;;;;5.50;3.72;;;;;;;5.97;100.00;102323.66;5077160;28;20035;-36
2023/10/16 03:54:14;;;;;;;5.75;3.70;;;;;;;6.09;100.00;102333.06;5076801;28;20158;-36
2023/10/16 03:56:39;;;;;;;6.13;4.03;;;;;;;6.06;100.00;102351.38;5077227;28;20079;-36
2023/10/16 03:59:05;;;;;;;4.38;3.20;;;;;;;6.10;100.00;102350.03;5076269;28;20487;-36
2023/10/16 04:01:35;;;;;;;6.15;3.90;;;;;;;6.13;100.00;102345.16;5076196;28;20502;-36
2023/10/16 04:04:03;;;;;;;4.53;3.50;;;;;;;6.15;100.00;102348.56;5076062;28;20020;-36
2023/10/16 04:06:30;;;;;;;6.65;3.70;;;;;;;6.10;100.00;102341.97;5076341;28;20025;-36
2023/10/16 04:08:58;;;;;;;5.25;3.28;;;;;;;6.07;100.00;102345.84;5076276;28;20021;-36
2023/10/16 04:11:24;;;;;;;6.68;3.55;;;;;;;6.12;100.00;102348.88;5076524;28;20060;-36
2023/10/16 04:13:49;;;;;;;;;;;;;;;6.23;100.00;102350.41;5076389;28;20024;-36
2023/10/16 04:16:42;;;;;;;6.15;3.70;;;;;;;6.13;100.00;102339.78;5076416;28;19904;-36
2023/10/16 04:21:50;;;;;;;5.53;3.55;;;;;;;6.23;100.00;102344.19;5076191;28;20032;-36
2023/10/16 04:29:34;;;;;;;6.03;4.05;;;;;;;6.11;100.00;102320.34;5076553;28;20093;-36
2023/10/16 04:48:23;;;;;;;5.72;4.55;;;;;;;6.03;100.00;102304.19;5075955;28;20036;-36
2023/10/16 04:53:12;;;;;;;8.85;5.35;;;;;;;6.16;100.00;102312.63;5076101;28;20071;-36
2023/10/16 05:11:36;;;;;;;5.70;4.53;;;;;;;6.18;100.00;102313.28;5074995;28;20357;-36
2023/10/16 06:14:16;;;;;;;5.20;4.10;;;;;;;6.15;100.00;102304.75;5074327;28;20062;-36
2023/10/16 06:16:48;;;;;;;6.63;4.00;;;;;;;6.23;100.00;102310.09;5074496;28;20031;-36
2023/10/16 06:19:15;;;;;;;7.38;4.60;;;;;;;6.11;100.00;102311.44;5074750;28;20085;-36
2023/10/16 06:21:48;;;;;;;6.63;3.60;;;;;;;6.24;100.00;102314.47;5074463;28;20024;-36
2023/10/16 06:24:35;;;;;;;9.32;4.25;;;;;;;6.15;100.00;102305.56;5073921;28;20023;-36
2023/10/16 06:27:12;;;;;;;5.57;3.88;;;;;;;6.16;100.00;102301.03;5074177;28;20456;-36
2023/10/16 06:29:51;;;;;;;;;;;;;;;6.26;100.00;102312.47;5074542;28;20055;-36
2023/10/16 06:32:21;;;;;;;5.63;3.70;;;;;;;6.08;100.00;102312.59;5074570;28;19911;-36
2023/10/16 06:35:02;;;;;;;5.57;4.10;;;;;;;5.97;100.00;102306.72;5073716;28;20025;-36
2023/10/16 06:37:31;;;;;;;6.88;4.20;;;;;;;6.11;100.00;102319.50;5073935;28;20021;-36
2023/10/16 06:40:15;;;;;;;12.10;4.68;;;;;;;6.16;100.00;102317.16;5073356;28;20070;-36
2023/10/16 06:42:45;;;;;;;5.35;4.32;;;;;;;6.07;100.00;102308.25;5073713;28;20024;-36
2023/10/16 06:45:19;;;;;;;7.72;3.92;;;;;;;6.17;100.00;102319.66;5073645;28;20069;-36
2023/10/16 06:47:48;;;;;;;6.18;4.68;;;;;;;6.13;100.00;102299.50;5074419;28;20029;-36
2023/10/16 06:52:58;;;;;;;5.55;4.35;;;;;;;6.24;100.00;102314.47;5073646;28;20365;-36
2023/10/16 06:55:24;;;;;;;7.07;4.22;;;;;;;6.30;100.00;102316.50;5073788;28;20111;-36
2023/10/16 06:57:50;;;;;;;4.97;3.85;;;;;;;6.34;100.00;102314.28;5073077;28;20505;-36
2023/10/16 07:00:25;;;;;;;5.95;3.72;;;;;;;6.44;100.00;102310.47;5074115;28;20096;-36
2023/10/16 07:02:54;;;;;;;6.97;4.43;;;;;;;6.40;100.00;102310.97;5073790;28;20338;-36
2023/10/16 07:05:23;;;;;;;5.30;4.38;;;;;;;6.31;100.00;102315.50;5074002;28;20070;-36
2023/10/16 07:07:49;;;;;;;7.85;4.75;;;;;;;6.31;100.00;102317.34;5073057;28;20052;-36
2023/10/16 07:10:15;;;;;;;7.40;4.07;;;;;;;6.42;100.00;102317.84;5074009;28;20115;-36
2023/10/16 07:12:56;;;;;;;5.87;3.77;;;;;;;6.42;100.00;102306.25;5073677;28;20113;-36
2023/10/16 07:15:25;;;;;;;6.13;4.15;;;;;;;6.50;100.00;102295.50;5073302;28;20028;-36
2023/10/16 07:17:51;;;;;;;6.43;3.92;;;;;;;6.63;100.00;102300.34;5073193;28;20031;-36
2023/10/16 07:20:29;;;;;;;6.10;4.40;;;;;;;6.64;100.00;102307.44;5077494;28;20024;-36
2023/10/16 07:23:00;;;;;;;5.20;3.80;;;;;;;6.79;100.00;102308.41;5077365;28;20051;-35
2023/10/16 07:28:11;;;;;;;8.07;4.97;;;;;;;6.72;100.00;102318.16;5077770;28;20063;-36
2023/10/16 07:30:37;;;;;;;8.67;4.90;;;;;;;6.78;100.00;102316.63;5077019;28;20016;-36
2023/10/16 07:33:03;;;;;;;5.32;4.30;;;;;;;6.73;100.00;102309.06;5077112;28;20267;-36
2023/10/16 07:35:28;;;;;;;6.15;4.22;;;;;;;6.87;100.00;102319.13;5077671;28;20357;-36
2023/10/16 07:37:53;;;;;;;7.00;5.32;;;;;;;6.97;100.00;102327.84;5076978;28;20021;-36
2023/10/16 07:40:20;;;;;;;6.33;4.10;;;;;;;6.95;100.00;102324.50;5077385;28;20108;-36
2023/10/16 07:42:46;;;;;;;7.35;4.72;;;;;;;7.08;100.00;102317.78;5077705;28;20020;-36
2023/10/16 07:45:12;;;;;;;5.90;4.40;;;;;;;7.11;100.00;102317.41;5077737;28;20044;-36
2023/10/16 07:47:37;;;;;;;6.57;3.70;;;;;;;7.19;100.00;102317.41;5077612;28;20025;-36
2023/10/16 07:50:04;;;;;;;6.10;3.97;;;;;;;7.26;100.00;102312.16;5077377;28;20016;-34
2023/10/16 07:52:30;;;;;;;7.18;3.92;;;;;;;7.28;100.00;102299.38;5077477;28;20089;-34
2023/10/16 07:54:55;;;;;;;7.57;4.30;;;;;;;7.27;100.00;102300.38;5077267;28;20444;-34
2023/10/16 07:57:23;;;;;;;5.88;4.13;;;;;;;7.47;100.00;102309.75;5076793;28;20086;-34
2023/10/16 07:59:54;;;;;;;7.40;4.07;;;;;;;7.47;100.00;102302.50;5077070;28;20043;-34
2023/10/16 08:02:20;;;;;;;5.47;4.15;;;;;;;7.58;100.00;102305.81;5076588;28;20028;-35
2023/10/16 08:04:51;;;;;;;8.85;4.07;;;;;;;7.68;100.00;102311.81;5076201;28;20028;-35
2023/10/16 08:07:18;;;;;;;5.70;3.05;;;;;;;7.77;100.00;102308.06;5076523;28;20074;-35
2023/10/16 08:12:18;;;;;;;4.35;3.40;;;;;;;7.94;100.00;102309.66;5077011;28;20032;-35
2023/10/16 08:14:44;;;;;;;8.30;4.00;;;;;;;7.85;100.00;102308.00;5076327;28;20460;-35
2023/10/16 08:17:16;;;;;;;6.38;3.70;;;;;;;7.86;100.00;102311.56;5076541;28;20017;-35
2023/10/16 08:19:42;;;;;;;4.25;3.00;;;;;;;8.06;100.00;102307.41;5077089;28;20035;-35
2023/10/16 08:22:09;;;;;;;5.00;3.70;;;;;;;8.10;100.00;102307.84;5076257;28;20442;-35
2023/10/16 08:24:34;;;;;;;;;;;;;;;8.19;100.00;102312.19;5076826;28;20078;-35
2023/10/16 08:30:17;;;;;;;6.47;4.15;;;;;;;8.20;100.00;102309.31;5075648;28;20039;-35
2023/10/16 08:35:17;;;;;;;6.30;3.60;;;;;;;8.37;100.00;102314.59;5076563;28;20036;-35
2023/10/16 08:37:43;;;;;;;6.82;3.55;;;;;;;8.45;100.00;102310.00;5076456;28;20445;-36
2023/10/16 08:40:19;;;;;;;;;;;;;;;8.60;100.00;102314.59;5076635;28;20400;-35
2023/10/16 08:43:00;;;;;;;6.78;3.17;;;;;;;8.66;100.00;102305.78;5075783;28;19909;-36
2023/10/16 08:45:29;;;;;;;4.95;3.40;;;;;;;8.69;100.00;102302.72;5076613;28;20021;-35
2023/10/16 08:47:56;;;;;;;5.03;2.78;;;;;;;8.79;100.00;102292.50;5075705;28;20345;-36
2023/10/16 08:50:40;;;;;;;4.57;3.40;;;;;;;8.91;100.00;102301.81;5075701;28;20048;-35
2023/10/16 08:53:07;;;;;;;4.53;3.42;;;;;;;9.04;100.00;102301.19;5075616;28;20025;-35
2023/10/16 08:55:34;;;;;;;8.18;3.78;;;;;;;9.01;100.00;102293.44;5076182;28;20039;-36
2023/10/16 08:58:03;;;;;;;6.10;3.95;;;;;;;9.13;100.00;102301.94;5075240;28;20461;-35
2023/10/16 09:00:30;;;;;;;7.00;3.60;;;;;;;9.19;100.00;102303.88;5075778;28;20052;-35
2023/10/16 09:03:00;;;;;;;6.20;3.80;;;;;;;9.34;100.00;102299.31;5075451;28;20051;-35
2023/10/16 09:05:26;;;;;;;7.22;3.92;;;;;;;9.40;100.00;102295.00;5076211;28;20024;-36
2023/10/16 09:07:51;;;;;;;4.15;2.97;;;;;;;9.73;100.00;102303.53;5075176;28;20380;-35
2023/10/16 09:10:21;;;;;;;4.15;2.90;;;;;;;9.76;100.00;102295.91;5091582;28;20028;-35
2023/10/16 09:13:13;;;;;;;5.32;3.30;;;;;;;9.95;100.00;102299.81;5075468;28;20341;-35
2023/10/16 09:15:45;;;;;;;3.60;2.70;;;;;;;10.06;100.00;102302.03;5074974;28;20048;-35
2023/10/16 09:18:11;;;;;;;3.67;2.58;;;;;;;10.18;100.00;102312.34;5075686;28;20394;-35
2023/10/16 09:20:41;;;;;;;6.85;3.42;;;;;;;10.29;100.00;102307.28;5075683;28;20031;-35
2023/10/16 09:23:07;;;;;;;4.63;2.80;;;;;;;10.23;100.00;102308.03;5074997;28;20024;-35
2023/10/16 09:25:33;;;;;;;4.40;2.35;;;;;;;10.34;100.00;102303.16;5075254;28;20024;-36
2023/10/16 09:27:59;;;;;;;4.13;1.88;;;;;;;10.36;100.00;102301.94;5074699;28;20028;-35
2023/10/16 09:30:28;;;;;;;6.88;2.10;;;;;;;10.54;100.00;102307.72;5075456;28;20036;-35
2023/10/16 09:32:54;;;;;;;3.97;2.08;;;;;;;10.69;100.00;102301.41;5074483;28;20016;-36
2023/10/16 09:35:30;;;;;;;3.95;2.20;;;;;;;10.71;100.00;102291.22;5075305;28;20036;-35
2023/10/16 09:38:17;;;;;;;5.10;2.47;;;;;;;10.90;100.00;102305.91;5075542;28;20077;-36
2023/10/16 09:40:58;;;;;;;3.10;1.77;;;;;;;10.97;100.00;102307.63;5074443;28;20032;-36
2023/10/16 09:43:24;;;;;;;3.20;1.77;;;;;;;11.09;100.00;102306.03;5075220;28;20081;-35
2023/10/16 09:46:21;;;;;;;3.78;1.75;;;;;;;11.17;100.00;102306.91;5074622;28;20027;-36
2023/10/16 09:48:37;;;;;;;3.28;1.77;;;;;;;11.24;100.00;102310.50;5074189;28;20028;-36
2023/10/16 09:51:03;;;;;;;2.90;1.48;;;;;;;11.32;100.00;102308.47;5074449;28;20024;-35
2023/10/16 09:53:30;;;;;;;5.15;1.90;;;;;;;11.33;100.00;102293.06;5074650;28;20031;-35
2023/10/16 09:56:01;;;;;;;4.72;1.95;;;;;;;11.39;100.00;102310.38;5074402;28;20114;-35
2023/10/16 09:58:33;;;;;;;3.03;1.65;;;;;;;11.44;100.00;102297.06;5074356;28;20464;-35
2023/10/16 10:01:07;;;;;;;2.70;1.50;;;;;;;11.57;100.00;102302.56;5074573;28;20024;-35
2023/10/16 10:03:35;;;;;;;2.60;1.48;;;;;;;11.64;100.00;102297.97;5074528;28;20086;-35
2023/10/16 10:11:38;;;;;;;3.53;1.17;;;;;;;11.91;100.00;102307.09;5073886;28;20039;-35
2023/10/16 10:14:11;;;;;;;2.53;0.82;;;;;;;11.82;100.00;102309.13;5074068;28;20028;-35
2023/10/16 10:16:48;;;;;;;2.72;0.65;;;;;;;11.80;100.00;102303.03;5074458;28;20028;-36
2023/10/16 10:19:24;;;;;;;3.50;1.20;;;;;;;11.81;100.00;102304.72;5074001;28;20028;-36
2023/10/16 10:21:53;;;;;;;2.55;0.90;;;;;;;11.82;100.00;102306.41;5073684;28;20104;-35
2023/10/16 10:24:21;;;;;;;5.38;1.27;;;;;;;11.88;100.00;102295.81;5073896;28;20031;-35
2023/10/16 10:26:50;;;;;;;3.25;1.45;;;;;;;11.98;100.00;102294.38;5073615;28;20035;-36
2023/10/16 10:29:16;;;;;;;2.30;0.88;;;;;;;12.06;100.00;102298.78;5073771;28;20021;-36
2023/10/16 10:31:48;;;;;;;2.08;0.70;;;;;;;12.11;100.00;102301.69;5074710;28;20028;-36
2023/10/16 10:34:24;;;;;;;2.22;0.73;;;;;;;12.06;100.00;102288.75;5073773;28;20024;-36
2023/10/16 10:36:50;;;;;;;3.50;1.35;;;;;;;12.17;100.00;102291.91;5074080;28;20021;-36
2023/10/16 10:39:21;;;;;;;;;;;;;;;12.31;100.00;102282.75;5074111;28;20020;-36
2023/10/16 10:42:03;;;;;;;2.50;0.98;;;;;;;12.07;100.00;102266.03;5073427;28;19948;-36
2023/10/16 10:44:44;;;;;;;4.90;4.47;;;;;;;12.26;100.00;102290.66;5073931;28;20036;-36
2023/10/16 10:47:20;;;;;;;2.70;1.10;;;;;;;12.26;100.00;102290.66;5073648;28;20037;-36
2023/10/16 10:49:49;;;;;;;3.75;1.13;;;;;;;12.27;100.00;102285.03;5073335;28;20021;-36
2023/10/16 10:52:18;;;;;;;2.60;0.90;;;;;;;12.30;100.00;102286.50;5073992;28;20024;-36
2023/10/16 10:54:44;;;;;;;3.95;1.08;;;;;;;12.35;100.00;102281.28;5073521;28;20387;-36
2023/10/16 10:57:17;;;;;;;3.75;1.00;;;;;;;12.26;100.00;102282.53;5073763;28;20051;-36
2023/10/16 10:59:55;;;;;;;1.83;0.90;;;;;;;12.20;100.00;102270.63;5074360;28;20028;-36
2023/10/16 11:02:35;;;;;;;2.85;1.00;;;;;;;12.09;100.00;102277.47;5074332;28;20029;-36
2023/10/16 11:05:08;;;;;;;1.88;1.15;;;;;;;12.09;100.00;102266.63;5074187;28;20036;-36
2023/10/16 11:07:45;;;;;;;3.28;0.82;;;;;;;12.04;100.00;102271.00;5073106;28;20035;-36
2023/10/16 11:10:13;;;;;;;2.17;0.85;;;;;;;11.98;100.00;102272.69;5074220;28;20445;-36
2023/10/16 11:12:39;;;;;;;1.83;0.90;;;;;;;11.96;100.00;102272.06;5073432;28;20396;-36
2023/10/16 11:15:11;;;;;;;3.03;0.80;;;;;;;11.95;100.00;102262.22;5073355;28;20032;-36
2023/10/16 11:17:40;;;;;;;1.88;0.88;;;;;;;11.95;100.00;102264.94;5073557;28;20049;-36
2023/10/16 11:22:44;;;;;;;1.58;0.82;;;;;;;12.01;100.00;102257.88;5073664;28;20036;-36
2023/10/16 11:25:14;;;;;;;3.03;1.00;;;;;;;12.13;100.00;102255.38;5073014;28;20526;-36
2023/10/16 11:27:43;;;;;;;1.98;0.90;;;;;;;12.31;100.00;102259.16;5073211;28;20025;-36
2023/10/16 11:30:11;;;;;;;2.78;1.27;;;;;;;12.36;100.00;102250.41;5073295;28;20414;-36
2023/10/16 11:32:45;;;;;;;2.28;1.20;;;;;;;12.59;100.00;102245.41;5073202;28;20073;-36
2023/10/16 11:35:15;;;;;;;3.05;0.80;;;;;;;12.64;100.00;102236.63;5073214;28;20099;-36
2023/10/16 11:37:50;;;;;;;1.40;0.70;;;;;;;12.80;100.00;102247.03;5073119;28;20355;-36
2023/10/16 11:40:19;;;;;;;2.33;0.90;;;;;;;12.73;100.00;102246.19;5072861;28;20028;-36
2023/10/16 11:42:48;;;;;;;2.75;0.95;;;;;;;12.70;100.00;102243.06;5072877;28;20016;-36
2023/10/16 11:45:20;;;;;;;2.25;0.90;;;;;;;12.67;100.00;102240.78;5072748;28;20111;-36
2023/10/16 11:48:18;;;;;;;6.07;0.93;;;;;;;12.53;100.00;102224.50;5071946;28;20033;-36
2023/10/16 11:50:39;;;;;;;3.50;1.00;;;;;;;12.43;100.00;102224.09;5072946;28;20037;-36
2023/10/16 11:53:08;;;;;;;2.00;0.80;;;;;;;12.32;100.00;102232.88;5072673;28;20031;-36
2023/10/16 11:55:37;;;;;;;2.45;0.70;;;;;;;12.27;100.00;102230.78;5073107;28;20016;-36
2023/10/16 11:58:03;;;;;;;3.00;0.80;;;;;;;12.21;100.00;102228.91;5073144;28;20375;-36
2023/10/16 12:00:31;;;;;;;2.97;0.85;;;;;;;12.11;100.00;102214.94;5073227;28;20374;-36
2023/10/16 12:02:56;;;;;;;4.85;1.17;;;;;;;12.17;100.00;102216.81;5072832;28;20036;-36
2023/10/16 12:05:25;;;;;;;2.63;0.75;;;;;;;12.14;100.00;102216.38;5074845;28;20029;-36
2023/10/16 12:07:52;;;;;;;1.98;0.88;;;;;;;12.16;100.00;102214.31;5076761;28;20024;-36
2023/10/16 12:10:17;;;;;;;1.85;1.00;;;;;;;12.18;100.00;102209.50;5077024;28;20111;-36
2023/10/16 12:12:44;;;;;;;2.10;0.90;;;;;;;12.18;100.00;102214.94;5076369;28;20092;-36
2023/10/16 12:15:12;;;;;;;4.95;1.27;;;;;;;12.23;100.00;102212.41;5076672;28;20023;-36
2023/10/16 12:17:37;;;;;;;2.58;0.98;;;;;;;12.28;100.00;102207.19;5076794;28;20104;-36
2023/10/16 12:20:10;;;;;;;3.67;1.20;;;;;;;12.36;100.00;102204.28;5076306;28;20472;-36
2023/10/16 12:22:39;;;;;;;3.17;1.08;;;;;;;12.48;100.00;102189.03;5076468;28;20024;-36
2023/10/16 12:25:09;;;;;;;5.25;1.30;;;;;;;12.50;100.00;102191.56;5075984;28;20498;-36
2023/10/16 12:27:37;;;;;;;1.80;1.00;;;;;;;12.64;100.00;102198.63;5076129;28;20036;-36
2023/10/16 12:30:04;;;;;;;2.88;0.80;;;;;;;12.66;100.00;102190.25;5076115;28;20025;-36
2023/10/16 12:32:29;;;;;;;3.92;0.90;;;;;;;12.71;98.79;102195.88;5076068;28;20411;-36
2023/10/16 12:35:00;;;;;;;3.15;1.05;;;;;;;12.68;100.00;102177.31;5076512;28;20028;-36
2023/10/16 12:37:25;;;;;;;1.65;0.80;;;;;;;12.98;100.00;102200.22;5076744;28;20066;-36
2023/10/16 12:39:52;;;;;;;4.45;0.70;;;;;;;13.06;100.00;102190.97;5075959;28;20024;-36
2023/10/16 12:42:18;;;;;;;2.97;0.93;;;;;;;13.11;100.00;102183.84;5075577;28;20025;-36
2023/10/16 12:44:44;;;;;;;2.75;0.93;;;;;;;13.06;97.95;102189.09;5076126;28;20025;-36
2023/10/16 12:47:11;;;;;;;2.50;0.88;;;;;;;12.99;96.28;102185.56;5075499;28;20077;-36
2023/10/16 12:49:37;;;;;;;1.70;0.90;;;;;;;13.02;100.00;102179.69;5076581;28;20020;-36
2023/10/16 12:52:02;;;;;;;2.53;0.93;;;;;;;12.91;95.14;102182.25;5076013;28;20372;-36
2023/10/16 12:54:28;;;;;;;2.33;1.05;;;;;;;12.98;100.00;102183.91;5075330;28;20468;-36
2023/10/16 12:56:53;;;;;;;3.67;1.20;;;;;;;12.94;97.30;102179.97;5075879;28;20133;-36
2023/10/16 12:59:20;;;;;;;2.67;1.25;;;;;;;12.94;100.00;102170.97;5075840;28;20441;-36
2023/10/16 13:01:49;;;;;;;;;;;;;;;13.06;100.00;102172.78;5076482;28;20017;-36
2023/10/16 13:04:15;;;;;;;3.67;1.00;;;;;;;12.93;100.00;102175.56;5075370;28;19956;-36
2023/10/16 13:06:43;;;;;;;3.67;0.98;;;;;;;12.79;96.58;102173.97;5075753;28;20097;-36
2023/10/16 13:09:15;;;;;;;2.80;0.80;;;;;;;12.72;97.77;102175.84;5075322;28;20025;-36
2023/10/16 13:11:41;;;;;;;3.50;0.70;;;;;;;12.70;100.00;102181.50;5075542;28;20044;-36
2023/10/16 13:14:07;;;;;;;;;;;;;;;12.82;100.00;102174.34;5075633;28;20027;-36
2023/10/16 13:16:33;;;;;;;2.05;0.60;;;;;;;12.68;96.54;102166.44;5075209;28;20267;-36
2023/10/16 13:18:59;;;;;;;1.70;0.73;;;;;;;12.75;97.71;102168.09;5074977;28;20115;-36
2023/10/16 13:21:34;;;;;;;1.65;0.80;;;;;;;12.71;99.25;102169.56;5075696;28;20029;-36
2023/10/16 13:24:16;;;;;;;3.83;0.77;;;;;;;12.75;99.42;102167.28;5075038;28;20058;-36
2023/10/16 13:26:42;;;;;;;3.20;0.82;;;;;;;12.65;100.00;102161.47;5075366;28;20055;-36
2023/10/16 13:29:10;;;;;;;;;;;;;;;12.66;95.90;102158.53;5075881;28;20440;-36
2023/10/16 13:31:40;;;;;;;1.90;0.70;;;;;;;12.55;100.00;102165.44;5075213;28;19909;-36
2023/10/16 13:34:10;;;;;;;2.55;0.80;;;;;;;12.60;100.00;102162.94;5075100;28;20021;-36
2023/10/16 13:36:56;;;;;;;6.60;1.67;;;;;;;12.72;100.00;102165.81;5075550;28;20074;-36
2023/10/16 13:39:24;;;;;;;3.03;0.90;;;;;;;12.67;95.87;102159.34;5074768;28;20028;-36